Terminal Aerodrome Forecast
Issued by NWS

Home | Current Version | Previous Version | Text Only | Print | Product List | Glossary Off
Versions: 1 2 3 4 5 6 7 8 9 10 11 12 13 14

754
FTUS44 KTSA 231720
TAFXNA
TAF
KXNA 231720Z 2318/2418 28008KT P6SM VCTS BKN025CB
      TEMPO 2318/2321 VRB15G30KT 4SM -TSRA
     FM232100 35011KT P6SM BKN050 BKN120
     FM240200 02007KT P6SM SCT120=

USA.gov is the U.S. government's official web portal to all federal, state and local government web resources and services.